sensor_id;sensor_type;location;lat;lon;timestamp;P1;durP1;ratioP1;P2;durP2;ratioP2
77038;SDS011;65970;50.476;4.840;2023-04-01T00:01:48;1.08;;;0.40;;
77038;SDS011;65970;50.476;4.840;2023-04-01T00:06:48;5.95;;;0.75;;
77038;SDS011;65970;50.476;4.840;2023-04-01T00:11:49;3.10;;;0.55;;
77038;SDS011;65970;50.476;4.840;2023-04-01T00:16:49;3.55;;;0.40;;
77038;SDS011;65970;50.476;4.840;2023-04-01T00:21:50;1.45;;;0.30;;
77038;SDS011;65970;50.476;4.840;2023-04-01T00:26:51;1.27;;;0.40;;
77038;SDS011;65970;50.476;4.840;2023-04-01T00:31:51;1.98;;;0.40;;
77038;SDS011;65970;50.476;4.840;2023-04-01T00:36:52;1.65;;;0.45;;
77038;SDS011;65970;50.476;4.840;2023-04-01T00:41:53;1.33;;;0.38;;
77038;SDS011;65970;50.476;4.840;2023-04-01T00:46:54;1.95;;;0.45;;
77038;SDS011;65970;50.476;4.840;2023-04-01T00:51:55;0.47;;;0.20;;
77038;SDS011;65970;50.476;4.840;2023-04-01T00:57:05;4.88;;;0.40;;
77038;SDS011;65970;50.476;4.840;2023-04-01T01:02:08;0.68;;;0.30;;
77038;SDS011;65970;50.476;4.840;2023-04-01T01:17:56;0.43;;;0.20;;
77038;SDS011;65970;50.476;4.840;2023-04-01T01:38:34;1.20;;;0.50;;
77038;SDS011;65970;50.476;4.840;2023-04-01T01:43:39;0.28;;;0.28;;
77038;SDS011;65970;50.476;4.840;2023-04-01T01:48:42;1.55;;;0.20;;
77038;SDS011;65970;50.476;4.840;2023-04-01T01:53:44;2.38;;;0.30;;
77038;SDS011;65970;50.476;4.840;2023-04-01T01:58:46;0.22;;;0.20;;
77038;SDS011;65970;50.476;4.840;2023-04-01T02:03:51;0.30;;;0.15;;
77038;SDS011;65970;50.476;4.840;2023-04-01T02:09:04;1.65;;;0.30;;
77038;SDS011;65970;50.476;4.840;2023-04-01T02:14:09;0.20;;;0.20;;
77038;SDS011;65970;50.476;4.840;2023-04-01T02:19:14;0.20;;;0.20;;
77038;SDS011;65970;50.476;4.840;2023-04-01T02:24:16;0.45;;;0.20;;
77038;SDS011;65970;50.476;4.840;2023-04-01T02:29:19;0.57;;;0.30;;
77038;SDS011;65970;50.476;4.840;2023-04-01T02:34:23;0.10;;;0.10;;
77038;SDS011;65970;50.476;4.840;2023-04-01T02:39:24;0.10;;;0.10;;
77038;SDS011;65970;50.476;4.840;2023-04-01T02:44:25;0.17;;;0.17;;
77038;SDS011;65970;50.476;4.840;2023-04-01T02:49:25;0.10;;;0.10;;
77038;SDS011;65970;50.476;4.840;2023-04-01T02:54:26;0.20;;;0.10;;
77038;SDS011;65970;50.476;4.840;2023-04-01T02:59:27;0.10;;;0.10;;
77038;SDS011;65970;50.476;4.840;2023-04-01T03:04:27;1.08;;;0.25;;
77038;SDS011;65970;50.476;4.840;2023-04-01T03:09:28;1.40;;;0.35;;
77038;SDS011;65970;50.476;4.840;2023-04-01T03:14:28;0.28;;;0.28;;
77038;SDS011;65970;50.476;4.840;2023-04-01T03:19:29;0.30;;;0.30;;
77038;SDS011;65970;50.476;4.840;2023-04-01T03:24:30;0.95;;;0.35;;
77038;SDS011;65970;50.476;4.840;2023-04-01T03:29:30;1.33;;;0.68;;
77038;SDS011;65970;50.476;4.840;2023-04-01T03:34:31;3.80;;;1.15;;
77038;SDS011;65970;50.476;4.840;2023-04-01T03:39:32;1.42;;;0.98;;
77038;SDS011;65970;50.476;4.840;2023-04-01T03:44:32;1.75;;;1.02;;
77038;SDS011;65970;50.476;4.840;2023-04-01T03:49:33;1.30;;;0.93;;
77038;SDS011;65970;50.476;4.840;2023-04-01T03:54:34;1.50;;;0.90;;
77038;SDS011;65970;50.476;4.840;2023-04-01T03:59:34;2.15;;;0.82;;
77038;SDS011;65970;50.476;4.840;2023-04-01T04:04:35;1.40;;;0.95;;
77038;SDS011;65970;50.476;4.840;2023-04-01T04:09:36;0.70;;;0.70;;
77038;SDS011;65970;50.476;4.840;2023-04-01T04:14:36;1.98;;;0.70;;
77038;SDS011;65970;50.476;4.840;2023-04-01T04:19:37;0.73;;;0.70;;
77038;SDS011;65970;50.476;4.840;2023-04-01T04:24:37;4.50;;;1.13;;
77038;SDS011;65970;50.476;4.840;2023-04-01T04:29:38;1.00;;;0.90;;
77038;SDS011;65970;50.476;4.840;2023-04-01T04:34:39;2.92;;;1.10;;
77038;SDS011;65970;50.476;4.840;2023-04-01T04:39:39;2.67;;;1.15;;
77038;SDS011;65970;50.476;4.840;2023-04-01T04:54:54;1.33;;;0.93;;
77038;SDS011;65970;50.476;4.840;2023-04-01T05:05:05;2.15;;;1.45;;
77038;SDS011;65970;50.476;4.840;2023-04-01T05:10:06;2.08;;;1.25;;
77038;SDS011;65970;50.476;4.840;2023-04-01T05:15:07;1.88;;;1.50;;
77038;SDS011;65970;50.476;4.840;2023-04-01T05:20:08;2.13;;;1.50;;
77038;SDS011;65970;50.476;4.840;2023-04-01T05:25:09;2.65;;;1.90;;
77038;SDS011;65970;50.476;4.840;2023-04-01T05:30:10;3.67;;;2.00;;
77038;SDS011;65970;50.476;4.840;2023-04-01T05:35:11;2.60;;;1.92;;
77038;SDS011;65970;50.476;4.840;2023-04-01T05:50:45;4.15;;;1.60;;
77038;SDS011;65970;50.476;4.840;2023-04-01T05:55:46;2.63;;;1.25;;
77038;SDS011;65970;50.476;4.840;2023-04-01T06:00:47;2.40;;;1.60;;
77038;SDS011;65970;50.476;4.840;2023-04-01T06:05:47;1.25;;;1.15;;
77038;SDS011;65970;50.476;4.840;2023-04-01T06:27:13;3.33;;;2.00;;
77038;SDS011;65970;50.476;4.840;2023-04-01T06:32:36;2.60;;;2.17;;
77038;SDS011;65970;50.476;4.840;2023-04-01T06:48:35;3.22;;;2.03;;
77038;SDS011;65970;50.476;4.840;2023-04-01T07:41:11;2.65;;;2.10;;
77038;SDS011;65970;50.476;4.840;2023-04-01T07:56:51;2.28;;;1.85;;
77038;SDS011;65970;50.476;4.840;2023-04-01T08:18:09;2.97;;;1.80;;
77038;SDS011;65970;50.476;4.840;2023-04-01T08:23:27;3.35;;;2.10;;
77038;SDS011;65970;50.476;4.840;2023-04-01T08:34:35;2.05;;;1.80;;
